createdAt,value
2019-02-12T00:03:26.921Z,8.03
2019-02-12T00:08:32.317Z,6.73
2019-02-12T00:13:37.768Z,6.27
2019-02-12T00:18:43.163Z,7.67
2019-02-12T00:23:48.586Z,5.67
2019-02-12T00:28:53.977Z,6.97
2019-02-12T00:33:59.360Z,7.13
2019-02-12T00:39:06.193Z,6.83
2019-02-12T00:44:12.878Z,6.63
2019-02-12T00:49:18.276Z,5.23
2019-02-12T00:54:24.250Z,6.73
2019-02-12T00:59:29.721Z,5.97
2019-02-12T01:04:35.114Z,6.40
2019-02-12T01:09:40.570Z,5.60
2019-02-12T01:14:45.959Z,6.47
2019-02-12T01:19:51.356Z,7.27
2019-02-12T01:24:56.765Z,6.40
2019-02-12T01:30:02.140Z,4.50
2019-02-12T01:35:08.611Z,5.80
2019-02-12T01:40:14.336Z,4.67
2019-02-12T01:45:20.801Z,6.40
2019-02-12T01:50:26.186Z,4.67
2019-02-12T01:55:31.581Z,4.43
2019-02-12T02:00:37.441Z,4.40
2019-02-12T02:05:42.822Z,4.23
2019-02-12T02:10:48.568Z,6.70
2019-02-12T02:15:53.956Z,4.03
2019-02-12T02:20:59.434Z,4.90
2019-02-12T02:26:04.868Z,3.30
2019-02-12T02:31:10.248Z,5.37
2019-02-12T02:36:15.636Z,4.23
2019-02-12T02:41:21.052Z,4.10
2019-02-12T02:46:26.566Z,3.90
2019-02-12T02:51:32.265Z,4.47
2019-02-12T02:56:37.655Z,4.10
2019-02-12T03:01:44.020Z,3.53
2019-02-12T03:06:49.404Z,3.67
2019-02-12T03:11:54.804Z,4.60
2019-02-12T03:17:02.584Z,3.60
2019-02-12T03:22:07.962Z,5.30
2019-02-12T03:27:13.353Z,3.60
2019-02-12T03:32:18.746Z,4.47
2019-02-12T03:37:24.139Z,2.77
2019-02-12T03:42:29.593Z,3.40
2019-02-12T03:47:35.011Z,4.17
2019-02-12T03:52:40.419Z,3.57
2019-02-12T03:57:45.789Z,3.07
2019-02-12T04:03:01.650Z,3.20
2019-02-12T04:08:07.259Z,4.70
2019-02-12T04:13:12.651Z,2.43
2019-02-12T04:18:18.033Z,3.03
2019-02-12T04:23:23.414Z,4.90
2019-02-12T04:28:28.840Z,4.07
2019-02-12T04:33:34.511Z,3.20
2019-02-12T04:38:39.904Z,3.57
2019-02-12T04:43:45.396Z,3.90
2019-02-12T04:48:50.776Z,3.30
2019-02-12T04:53:56.163Z,3.77
2019-02-12T04:59:01.613Z,2.13
2019-02-12T05:04:06.935Z,3.50
2019-02-12T05:09:19.423Z,2.83
2019-02-12T05:14:24.824Z,2.43
2019-02-12T05:19:30.221Z,2.87
2019-02-12T05:24:35.610Z,3.30
2019-02-12T05:29:41.012Z,2.40
2019-02-12T05:34:46.376Z,2.40
2019-02-12T05:39:51.761Z,3.37
2019-02-12T05:44:57.154Z,2.73
2019-02-12T05:50:02.603Z,2.70
2019-02-12T05:55:08.055Z,2.37
2019-02-12T06:00:21.084Z,1.87
2019-02-12T06:05:29.548Z,2.40
2019-02-12T06:10:35.929Z,2.40
2019-02-12T06:15:41.321Z,2.37
2019-02-12T06:20:46.871Z,2.60
2019-02-12T06:25:52.255Z,2.83
2019-02-12T06:30:58.073Z,2.33
2019-02-12T06:36:03.523Z,2.73
2019-02-12T06:41:08.960Z,2.63
2019-02-12T06:46:16.019Z,2.53
2019-02-12T06:51:21.404Z,1.83
2019-02-12T06:56:26.815Z,1.90
2019-02-12T07:01:32.224Z,1.97
2019-02-12T07:07:00.179Z,2.60
2019-02-12T07:12:37.048Z,1.97
2019-02-12T07:18:13.713Z,2.20
2019-02-12T07:23:40.263Z,2.30
2019-02-12T07:29:02.508Z,4.37
2019-02-12T07:34:29.112Z,2.40
2019-02-12T07:40:01.700Z,2.10
2019-02-12T07:45:35.731Z,2.67
2019-02-12T07:51:00.565Z,2.33
2019-02-12T07:56:25.010Z,2.37
2019-02-12T08:01:55.725Z,2.70
2019-02-12T08:07:40.473Z,2.13
2019-02-12T08:13:22.150Z,3.63
2019-02-12T08:18:34.971Z,8.47
2019-02-12T08:23:51.967Z,9.53
2019-02-12T08:29:20.075Z,8.23
2019-02-12T08:35:00.618Z,10.90
2019-02-12T08:40:42.572Z,9.67
2019-02-12T08:46:01.388Z,7.83
2019-02-12T08:51:43.191Z,8.57
2019-02-12T08:57:17.409Z,6.37
2019-02-12T09:02:27.675Z,7.23
2019-02-12T09:07:47.928Z,5.73
2019-02-12T09:13:10.213Z,6.30
2019-02-12T09:18:59.351Z,7.80
2019-02-12T09:24:15.065Z,5.90
2019-02-12T09:29:52.163Z,6.73
2019-02-12T09:35:16.501Z,5.30
2019-02-12T09:46:40.362Z,8.03
2019-02-12T09:51:56.138Z,4.20
2019-02-12T09:57:20.380Z,5.00
2019-02-12T10:02:42.491Z,4.60
2019-02-12T10:08:29.231Z,4.27
2019-02-12T10:13:47.875Z,4.53
2019-02-12T10:19:15.224Z,4.83
2019-02-12T10:24:41.590Z,4.30
2019-02-12T10:30:24.433Z,5.33
2019-02-12T10:35:31.704Z,6.57
2019-02-12T10:40:37.341Z,4.80
2019-02-12T10:45:43.346Z,4.77
2019-02-12T10:50:48.870Z,3.27
2019-02-12T10:55:54.388Z,4.20
2019-02-12T11:00:59.926Z,2.80
2019-02-12T11:06:05.823Z,3.53
2019-02-12T11:11:12.133Z,4.10
2019-02-12T11:16:18.297Z,3.23
2019-02-12T11:21:23.684Z,24.40
2019-02-12T11:26:31.288Z,17.80
2019-02-12T11:31:39.883Z,16.67
2019-02-12T11:36:46.882Z,15.93
2019-02-12T11:41:52.347Z,14.80
2019-02-12T11:46:58.199Z,12.80
2019-02-12T11:52:03.636Z,9.47
2019-02-12T11:57:09.023Z,12.90
2019-02-12T12:02:14.420Z,14.00
2019-02-12T12:07:19.808Z,9.97
2019-02-12T12:12:25.201Z,10.30
2019-02-12T12:17:30.601Z,10.90
2019-02-12T12:22:36.072Z,8.97
2019-02-12T12:27:41.544Z,10.53
2019-02-12T12:32:46.940Z,7.73
2019-02-12T12:37:52.326Z,9.43
2019-02-12T12:42:57.970Z,9.93
2019-02-12T12:48:03.429Z,8.50
2019-02-12T12:53:08.952Z,9.57
2019-02-12T12:58:14.366Z,7.43
2019-02-12T13:03:19.784Z,8.17
2019-02-12T13:08:25.169Z,7.70
2019-02-12T13:13:30.622Z,7.10
2019-02-12T13:18:36.010Z,7.10
2019-02-12T13:23:41.452Z,8.17
2019-02-12T13:28:46.862Z,6.67
2019-02-12T13:33:54.182Z,7.30
2019-02-12T13:38:59.584Z,7.90
2019-02-12T13:44:05.033Z,6.23
2019-02-12T13:49:10.415Z,5.67
2019-02-12T13:54:15.864Z,4.87
2019-02-12T13:59:21.259Z,9.70
2019-02-12T14:04:26.651Z,58.83
2019-02-12T14:09:32.048Z,77.97
2019-02-12T14:14:37.517Z,81.93
2019-02-12T14:19:42.936Z,76.40
2019-02-12T14:24:48.386Z,73.07
2019-02-12T14:29:54.097Z,77.23
2019-02-12T14:35:02.561Z,69.17
2019-02-12T14:40:15.545Z,76.10
2019-02-12T14:45:21.234Z,64.87
2019-02-12T14:50:26.705Z,69.23
2019-02-12T14:55:33.861Z,85.53
2019-02-12T15:00:39.393Z,76.43
2019-02-12T15:05:45.607Z,86.33
2019-02-12T15:10:51.070Z,76.17
2019-02-12T15:15:56.464Z,71.90
2019-02-12T15:21:03.506Z,71.30
2019-02-12T15:26:08.979Z,70.23
2019-02-12T15:31:14.487Z,65.67
2019-02-12T15:36:19.962Z,68.53
2019-02-12T15:41:25.470Z,65.50
2019-02-12T15:46:30.944Z,58.87
2019-02-12T15:51:36.383Z,65.13
2019-02-12T15:57:01.528Z,13.00
2019-02-12T16:02:09.684Z,12.80
2019-02-12T16:07:15.859Z,9.13
2019-02-12T16:12:21.659Z,9.63
2019-02-12T16:17:27.240Z,9.53
2019-02-12T16:22:33.078Z,9.00
2019-02-12T16:27:44.484Z,13.37
2019-02-12T16:32:50.071Z,12.67
2019-02-12T16:37:55.578Z,11.70
2019-02-12T16:43:01.126Z,9.40
2019-02-12T16:48:06.561Z,10.47
2019-02-12T16:53:11.949Z,9.20
2019-02-12T16:58:17.400Z,9.03
2019-02-12T17:03:22.785Z,11.67
2019-02-12T17:08:28.176Z,8.33
2019-02-12T17:13:33.587Z,8.40
2019-02-12T17:18:39.068Z,8.30
2019-02-12T17:23:44.485Z,7.27
2019-02-12T17:28:49.893Z,7.83
2019-02-12T17:33:55.261Z,7.40
2019-02-12T17:39:00.664Z,6.53
2019-02-12T17:44:07.677Z,5.93
2019-02-12T17:49:13.948Z,7.67
2019-02-12T17:54:19.328Z,7.97
2019-02-12T17:59:24.787Z,7.60
2019-02-12T18:04:30.361Z,8.43
2019-02-12T18:09:35.759Z,5.63
2019-02-12T18:14:41.155Z,7.40
2019-02-12T18:19:46.622Z,7.33
2019-02-12T18:24:52.019Z,8.93
2019-02-12T18:29:57.445Z,6.60
2019-02-12T18:35:02.897Z,6.63
2019-02-12T18:40:12.388Z,9.17
2019-02-12T18:45:26.394Z,5.53
2019-02-12T18:50:32.058Z,5.40
2019-02-12T18:55:37.474Z,8.07
2019-02-12T19:00:42.973Z,6.00
2019-02-12T19:05:50.477Z,6.10
2019-02-12T19:10:55.954Z,5.20
2019-02-12T19:16:02.520Z,6.47
2019-02-12T19:21:07.929Z,5.97
2019-02-12T19:26:13.348Z,5.97
2019-02-12T19:31:18.568Z,6.03
2019-02-12T19:36:23.997Z,5.33
2019-02-12T19:41:30.944Z,6.87
2019-02-12T19:46:36.391Z,5.70
2019-02-12T19:51:41.782Z,5.20
2019-02-12T19:56:47.206Z,6.47
2019-02-12T20:01:52.588Z,7.67
2019-02-12T20:06:58.329Z,6.13
2019-02-12T20:12:04.091Z,4.53
2019-02-12T20:17:09.476Z,5.10
2019-02-12T20:22:14.898Z,5.87
2019-02-12T20:27:20.292Z,4.80
2019-02-12T20:32:26.372Z,4.90
2019-02-12T20:37:31.787Z,5.00
2019-02-12T20:42:37.179Z,4.73
2019-02-12T20:47:42.576Z,5.47
2019-02-12T20:52:47.972Z,4.30
2019-02-12T20:57:54.544Z,4.93
2019-02-12T21:02:59.949Z,4.60
2019-02-12T21:08:05.363Z,5.43
2019-02-12T21:13:10.825Z,5.93
2019-02-12T21:18:16.234Z,5.00
2019-02-12T21:23:21.791Z,4.97
2019-02-12T21:28:27.199Z,5.03
2019-02-12T21:33:32.616Z,5.57
2019-02-12T21:38:38.003Z,4.67
2019-02-12T21:43:44.974Z,5.23
2019-02-12T21:48:50.379Z,3.83
2019-02-12T21:53:55.769Z,3.73
2019-02-12T21:59:01.213Z,4.03
2019-02-12T22:04:06.625Z,4.43
2019-02-12T22:09:11.989Z,5.13
2019-02-12T22:14:17.987Z,4.30
2019-02-12T22:19:25.018Z,4.77
2019-02-12T22:24:30.414Z,4.00
2019-02-12T22:29:35.808Z,4.53
2019-02-12T22:34:41.193Z,4.40
2019-02-12T22:39:46.573Z,4.03
2019-02-12T22:44:51.960Z,4.97
2019-02-12T22:49:57.344Z,5.63
2019-02-12T22:55:02.911Z,4.07
2019-02-12T23:00:47.110Z,5.30
2019-02-12T23:05:53.176Z,5.83
2019-02-12T23:10:58.577Z,4.77
2019-02-12T23:16:04.146Z,4.83
2019-02-12T23:21:10.611Z,4.23
2019-02-12T23:26:16.009Z,4.17
2019-02-12T23:31:21.689Z,4.43
2019-02-12T23:36:28.048Z,4.70
2019-02-12T23:41:33.428Z,4.10
2019-02-12T23:46:38.823Z,5.57
2019-02-12T23:51:44.212Z,4.07
2019-02-12T23:56:49.623Z,4.97
